sensor_id;sensor_type;location;lat;lon;timestamp;temperature;humidity
3360;DHT22;1693;49.602;11.046;2023-02-28T00:01:07;-2.00;99.90
3360;DHT22;1693;49.602;11.046;2023-02-28T00:03:35;-2.10;99.90
3360;DHT22;1693;49.602;11.046;2023-02-28T00:06:03;-2.10;99.90
3360;DHT22;1693;49.602;11.046;2023-02-28T00:08:30;-2.10;99.90
3360;DHT22;1693;49.602;11.046;2023-02-28T00:11:01;-2.00;99.90
3360;DHT22;1693;49.602;11.046;2023-02-28T00:13:30;-2.00;99.90
3360;DHT22;1693;49.602;11.046;2023-02-28T00:16:02;-2.00;99.90
3360;DHT22;1693;49.602;11.046;2023-02-28T00:18:29;-2.10;99.90
3360;DHT22;1693;49.602;11.046;2023-02-28T00:20:57;-2.10;99.90
3360;DHT22;1693;49.602;11.046;2023-02-28T00:23:24;-2.00;99.90
3360;DHT22;1693;49.602;11.046;2023-02-28T00:25:52;-2.10;99.90
3360;DHT22;1693;49.602;11.046;2023-02-28T00:28:20;-2.10;99.90
3360;DHT22;1693;49.602;11.046;2023-02-28T00:30:48;-2.10;99.90
3360;DHT22;1693;49.602;11.046;2023-02-28T00:33:15;-2.10;99.90
3360;DHT22;1693;49.602;11.046;2023-02-28T00:35:43;-2.10;99.90
3360;DHT22;1693;49.602;11.046;2023-02-28T00:38:11;-2.10;99.90
3360;DHT22;1693;49.602;11.046;2023-02-28T00:40:38;-2.10;99.90
3360;DHT22;1693;49.602;11.046;2023-02-28T00:43:06;-2.10;99.90
3360;DHT22;1693;49.602;11.046;2023-02-28T00:45:33;-2.10;99.90
3360;DHT22;1693;49.602;11.046;2023-02-28T00:48:01;-2.10;99.90
3360;DHT22;1693;49.602;11.046;2023-02-28T00:50:30;-2.10;99.90
3360;DHT22;1693;49.602;11.046;2023-02-28T00:52:57;-2.00;99.90
3360;DHT22;1693;49.602;11.046;2023-02-28T00:55:24;-2.10;99.90
3360;DHT22;1693;49.602;11.046;2023-02-28T00:57:51;-2.10;99.90
3360;DHT22;1693;49.602;11.046;2023-02-28T01:00:18;-2.10;99.90
3360;DHT22;1693;49.602;11.046;2023-02-28T01:02:45;-2.10;99.90
3360;DHT22;1693;49.602;11.046;2023-02-28T01:05:14;-2.20;99.90
3360;DHT22;1693;49.602;11.046;2023-02-28T01:07:41;-2.20;99.90
3360;DHT22;1693;49.602;11.046;2023-02-28T01:10:09;-2.10;99.90
3360;DHT22;1693;49.602;11.046;2023-02-28T01:12:36;-2.10;99.90
3360;DHT22;1693;49.602;11.046;2023-02-28T01:15:04;-2.20;99.90
3360;DHT22;1693;49.602;11.046;2023-02-28T01:17:31;-2.20;99.90
3360;DHT22;1693;49.602;11.046;2023-02-28T01:19:59;-2.20;99.90
3360;DHT22;1693;49.602;11.046;2023-02-28T01:22:27;-2.30;99.90
3360;DHT22;1693;49.602;11.046;2023-02-28T01:24:54;-2.20;99.90
3360;DHT22;1693;49.602;11.046;2023-02-28T01:27:21;-2.30;99.90
3360;DHT22;1693;49.602;11.046;2023-02-28T01:29:48;-2.30;99.90
3360;DHT22;1693;49.602;11.046;2023-02-28T01:32:17;-2.30;99.90
3360;DHT22;1693;49.602;11.046;2023-02-28T01:34:44;-2.30;99.90
3360;DHT22;1693;49.602;11.046;2023-02-28T01:37:11;-2.40;99.90
3360;DHT22;1693;49.602;11.046;2023-02-28T01:39:39;-2.40;99.90
3360;DHT22;1693;49.602;11.046;2023-02-28T01:42:08;-2.40;99.90
3360;DHT22;1693;49.602;11.046;2023-02-28T01:44:55;-2.40;99.90
3360;DHT22;1693;49.602;11.046;2023-02-28T01:47:25;-2.40;99.90
3360;DHT22;1693;49.602;11.046;2023-02-28T01:49:53;-2.40;99.90
3360;DHT22;1693;49.602;11.046;2023-02-28T01:52:22;-2.40;99.90
3360;DHT22;1693;49.602;11.046;2023-02-28T01:54:55;-2.50;99.90
3360;DHT22;1693;49.602;11.046;2023-02-28T01:57:24;-2.50;99.90
3360;DHT22;1693;49.602;11.046;2023-02-28T01:59:56;-2.50;99.90
3360;DHT22;1693;49.602;11.046;2023-02-28T02:02:26;-2.50;99.90
3360;DHT22;1693;49.602;11.046;2023-02-28T02:04:56;-2.50;99.90
3360;DHT22;1693;49.602;11.046;2023-02-28T02:07:29;-2.60;99.90
3360;DHT22;1693;49.602;11.046;2023-02-28T02:10:06;-2.70;99.90
3360;DHT22;1693;49.602;11.046;2023-02-28T02:12:55;-2.70;99.90
3360;DHT22;1693;49.602;11.046;2023-02-28T02:15:30;-2.60;99.90
3360;DHT22;1693;49.602;11.046;2023-02-28T02:18:04;-2.60;99.90
3360;DHT22;1693;49.602;11.046;2023-02-28T02:27:15;-2.60;99.90
3360;DHT22;1693;49.602;11.046;2023-02-28T02:33:17;-2.70;99.90
3360;DHT22;1693;49.602;11.046;2023-02-28T02:35:53;-2.70;99.90
3360;DHT22;1693;49.602;11.046;2023-02-28T02:38:31;-2.60;99.90
3360;DHT22;1693;49.602;11.046;2023-02-28T02:41:05;-2.50;99.90
3360;DHT22;1693;49.602;11.046;2023-02-28T02:43:37;-2.60;99.90
3360;DHT22;1693;49.602;11.046;2023-02-28T02:46:10;-2.50;99.90
3360;DHT22;1693;49.602;11.046;2023-02-28T02:48:40;-2.60;99.90
3360;DHT22;1693;49.602;11.046;2023-02-28T02:51:14;-2.60;99.90
3360;DHT22;1693;49.602;11.046;2023-02-28T02:53:44;-2.60;99.90
3360;DHT22;1693;49.602;11.046;2023-02-28T02:56:17;-2.60;99.90
3360;DHT22;1693;49.602;11.046;2023-02-28T02:58:47;-2.50;99.90
3360;DHT22;1693;49.602;11.046;2023-02-28T03:01:21;-2.50;99.90
3360;DHT22;1693;49.602;11.046;2023-02-28T03:03:56;-2.60;99.90
3360;DHT22;1693;49.602;11.046;2023-02-28T03:06:25;-2.60;99.90
3360;DHT22;1693;49.602;11.046;2023-02-28T03:08:52;-2.50;99.90
3360;DHT22;1693;49.602;11.046;2023-02-28T03:11:20;-2.50;99.90
3360;DHT22;1693;49.602;11.046;2023-02-28T03:13:58;-2.50;99.90
3360;DHT22;1693;49.602;11.046;2023-02-28T03:16:36;-2.50;99.90
3360;DHT22;1693;49.602;11.046;2023-02-28T03:19:23;-2.50;99.90
3360;DHT22;1693;49.602;11.046;2023-02-28T03:22:02;-2.50;99.90
3360;DHT22;1693;49.602;11.046;2023-02-28T03:24:33;-2.40;99.90
3360;DHT22;1693;49.602;11.046;2023-02-28T03:27:09;-2.40;99.90
3360;DHT22;1693;49.602;11.046;2023-02-28T03:29:40;-2.40;99.90
3360;DHT22;1693;49.602;11.046;2023-02-28T03:32:15;-2.40;99.90
3360;DHT22;1693;49.602;11.046;2023-02-28T03:34:50;-2.40;99.90
3360;DHT22;1693;49.602;11.046;2023-02-28T03:37:22;-2.40;99.90
3360;DHT22;1693;49.602;11.046;2023-02-28T03:39:55;-2.50;99.90
3360;DHT22;1693;49.602;11.046;2023-02-28T03:42:27;-2.40;99.90
3360;DHT22;1693;49.602;11.046;2023-02-28T03:44:57;-2.40;99.90
3360;DHT22;1693;49.602;11.046;2023-02-28T03:47:28;-2.40;99.90
3360;DHT22;1693;49.602;11.046;2023-02-28T03:49:59;-2.40;99.90
3360;DHT22;1693;49.602;11.046;2023-02-28T03:52:31;-2.40;99.90
3360;DHT22;1693;49.602;11.046;2023-02-28T03:55:03;-2.40;99.90
3360;DHT22;1693;49.602;11.046;2023-02-28T03:57:36;-2.40;99.90
3360;DHT22;1693;49.602;11.046;2023-02-28T04:00:07;-2.40;99.90
3360;DHT22;1693;49.602;11.046;2023-02-28T04:02:35;-2.40;99.90
3360;DHT22;1693;49.602;11.046;2023-02-28T04:05:03;-2.50;99.90
3360;DHT22;1693;49.602;11.046;2023-02-28T04:07:31;-2.50;99.90
3360;DHT22;1693;49.602;11.046;2023-02-28T04:09:59;-2.50;99.90
3360;DHT22;1693;49.602;11.046;2023-02-28T04:12:26;-2.50;99.90
3360;DHT22;1693;49.602;11.046;2023-02-28T04:14:53;-2.50;99.90
3360;DHT22;1693;49.602;11.046;2023-02-28T04:17:21;-2.50;99.90
3360;DHT22;1693;49.602;11.046;2023-02-28T04:19:48;-2.40;99.90
3360;DHT22;1693;49.602;11.046;2023-02-28T04:22:15;-2.40;99.90
3360;DHT22;1693;49.602;11.046;2023-02-28T04:24:45;-2.50;99.90
3360;DHT22;1693;49.602;11.046;2023-02-28T04:27:12;-2.50;99.90
3360;DHT22;1693;49.602;11.046;2023-02-28T04:29:41;-2.50;99.90
3360;DHT22;1693;49.602;11.046;2023-02-28T04:32:10;-2.50;99.90
3360;DHT22;1693;49.602;11.046;2023-02-28T04:34:37;-2.50;99.90
3360;DHT22;1693;49.602;11.046;2023-02-28T04:37:05;-2.50;99.90
3360;DHT22;1693;49.602;11.046;2023-02-28T04:39:35;-2.50;99.90
3360;DHT22;1693;49.602;11.046;2023-02-28T04:42:05;-2.50;99.90
3360;DHT22;1693;49.602;11.046;2023-02-28T04:44:32;-2.40;99.90
3360;DHT22;1693;49.602;11.046;2023-02-28T04:46:59;-2.40;99.90
3360;DHT22;1693;49.602;11.046;2023-02-28T04:49:27;-2.40;99.90
3360;DHT22;1693;49.602;11.046;2023-02-28T04:51:54;-2.50;99.90
3360;DHT22;1693;49.602;11.046;2023-02-28T04:54:21;-2.50;99.90
3360;DHT22;1693;49.602;11.046;2023-02-28T04:56:48;-2.40;99.90
3360;DHT22;1693;49.602;11.046;2023-02-28T04:59:17;-2.40;99.90
3360;DHT22;1693;49.602;11.046;2023-02-28T05:01:46;-2.40;99.90
3360;DHT22;1693;49.602;11.046;2023-02-28T05:04:13;-2.40;99.90
3360;DHT22;1693;49.602;11.046;2023-02-28T05:06:40;-2.40;99.90
3360;DHT22;1693;49.602;11.046;2023-02-28T05:09:07;-2.40;99.90
3360;DHT22;1693;49.602;11.046;2023-02-28T05:11:37;-2.40;99.90
3360;DHT22;1693;49.602;11.046;2023-02-28T05:14:06;-2.40;99.90
3360;DHT22;1693;49.602;11.046;2023-02-28T05:16:34;-2.40;99.90
3360;DHT22;1693;49.602;11.046;2023-02-28T05:19:02;-2.40;99.90
3360;DHT22;1693;49.602;11.046;2023-02-28T05:21:30;-2.30;99.90
3360;DHT22;1693;49.602;11.046;2023-02-28T05:23:59;-2.30;99.90
3360;DHT22;1693;49.602;11.046;2023-02-28T05:26:27;-2.40;99.90
3360;DHT22;1693;49.602;11.046;2023-02-28T05:28:55;-2.40;99.90
3360;DHT22;1693;49.602;11.046;2023-02-28T05:31:22;-2.30;99.90
3360;DHT22;1693;49.602;11.046;2023-02-28T05:33:51;-2.30;99.90
3360;DHT22;1693;49.602;11.046;2023-02-28T05:36:18;-2.30;99.90
3360;DHT22;1693;49.602;11.046;2023-02-28T05:38:46;-2.30;99.90
3360;DHT22;1693;49.602;11.046;2023-02-28T05:41:14;-2.30;99.90
3360;DHT22;1693;49.602;11.046;2023-02-28T05:43:41;-2.30;99.90
3360;DHT22;1693;49.602;11.046;2023-02-28T05:46:09;-2.30;99.90
3360;DHT22;1693;49.602;11.046;2023-02-28T05:48:38;-2.30;99.90
3360;DHT22;1693;49.602;11.046;2023-02-28T05:51:07;-2.30;99.90
3360;DHT22;1693;49.602;11.046;2023-02-28T05:53:35;-2.30;99.90
3360;DHT22;1693;49.602;11.046;2023-02-28T05:56:03;-2.20;99.90
3360;DHT22;1693;49.602;11.046;2023-02-28T05:58:32;-2.30;99.90
3360;DHT22;1693;49.602;11.046;2023-02-28T06:01:19;-2.30;99.90
3360;DHT22;1693;49.602;11.046;2023-02-28T06:03:46;-2.30;99.90
3360;DHT22;1693;49.602;11.046;2023-02-28T06:06:14;-2.30;99.90
3360;DHT22;1693;49.602;11.046;2023-02-28T06:08:41;-2.30;99.90
3360;DHT22;1693;49.602;11.046;2023-02-28T06:11:10;-2.20;99.90
3360;DHT22;1693;49.602;11.046;2023-02-28T06:13:37;-2.20;99.90
3360;DHT22;1693;49.602;11.046;2023-02-28T06:16:05;-2.20;99.90
3360;DHT22;1693;49.602;11.046;2023-02-28T06:18:32;-2.20;99.90
3360;DHT22;1693;49.602;11.046;2023-02-28T06:20:59;-2.20;99.90
3360;DHT22;1693;49.602;11.046;2023-02-28T06:23:29;-2.20;99.90
3360;DHT22;1693;49.602;11.046;2023-02-28T06:25:57;-2.20;99.90
3360;DHT22;1693;49.602;11.046;2023-02-28T06:28:25;-2.20;99.90
3360;DHT22;1693;49.602;11.046;2023-02-28T06:30:52;-2.20;99.90
3360;DHT22;1693;49.602;11.046;2023-02-28T06:33:19;-2.10;99.90
3360;DHT22;1693;49.602;11.046;2023-02-28T06:35:47;-2.10;99.90
3360;DHT22;1693;49.602;11.046;2023-02-28T06:38:14;-2.10;99.90
3360;DHT22;1693;49.602;11.046;2023-02-28T06:40:42;-2.00;99.90
3360;DHT22;1693;49.602;11.046;2023-02-28T06:43:11;-2.00;99.90
3360;DHT22;1693;49.602;11.046;2023-02-28T06:45:42;-1.90;99.90
3360;DHT22;1693;49.602;11.046;2023-02-28T06:48:10;-1.80;99.90
3360;DHT22;1693;49.602;11.046;2023-02-28T06:50:37;-1.80;99.90
3360;DHT22;1693;49.602;11.046;2023-02-28T06:53:04;-1.60;99.90
3360;DHT22;1693;49.602;11.046;2023-02-28T06:55:37;-1.40;99.90
3360;DHT22;1693;49.602;11.046;2023-02-28T06:58:06;-1.30;99.90
3360;DHT22;1693;49.602;11.046;2023-02-28T07:00:40;-1.20;99.90
3360;DHT22;1693;49.602;11.046;2023-02-28T07:03:08;-1.20;99.90
3360;DHT22;1693;49.602;11.046;2023-02-28T07:05:35;-1.00;99.90
3360;DHT22;1693;49.602;11.046;2023-02-28T07:08:03;-1.00;99.90
3360;DHT22;1693;49.602;11.046;2023-02-28T07:10:30;-0.90;99.90
3360;DHT22;1693;49.602;11.046;2023-02-28T07:12:58;-0.70;99.90
3360;DHT22;1693;49.602;11.046;2023-02-28T07:15:27;-0.70;99.90
3360;DHT22;1693;49.602;11.046;2023-02-28T07:17:55;-0.80;99.90
3360;DHT22;1693;49.602;11.046;2023-02-28T07:20:30;-0.90;99.90
3360;DHT22;1693;49.602;11.046;2023-02-28T07:22:57;-0.70;99.90
3360;DHT22;1693;49.602;11.046;2023-02-28T07:25:26;-0.60;99.90
3360;DHT22;1693;49.602;11.046;2023-02-28T07:27:54;-0.30;99.90
3360;DHT22;1693;49.602;11.046;2023-02-28T07:30:21;-0.30;99.90
3360;DHT22;1693;49.602;11.046;2023-02-28T07:32:50;-0.30;99.90
3360;DHT22;1693;49.602;11.046;2023-02-28T07:35:17;-0.10;99.90
3360;DHT22;1693;49.602;11.046;2023-02-28T07:37:45;-0.10;99.90
3360;DHT22;1693;49.602;11.046;2023-02-28T07:40:13;0.10;99.90
3360;DHT22;1693;49.602;11.046;2023-02-28T07:42:41;0.20;99.90
3360;DHT22;1693;49.602;11.046;2023-02-28T07:45:10;0.30;99.90
3360;DHT22;1693;49.602;11.046;2023-02-28T07:47:37;0.20;99.90
3360;DHT22;1693;49.602;11.046;2023-02-28T07:50:07;0.30;99.90
3360;DHT22;1693;49.602;11.046;2023-02-28T07:52:36;0.50;99.90
3360;DHT22;1693;49.602;11.046;2023-02-28T07:55:03;0.60;99.90
3360;DHT22;1693;49.602;11.046;2023-02-28T07:57:31;0.60;99.90
3360;DHT22;1693;49.602;11.046;2023-02-28T07:59:58;0.60;99.90
3360;DHT22;1693;49.602;11.046;2023-02-28T08:02:25;0.80;99.90
3360;DHT22;1693;49.602;11.046;2023-02-28T08:04:52;1.00;99.90
3360;DHT22;1693;49.602;11.046;2023-02-28T08:07:21;1.00;99.90
3360;DHT22;1693;49.602;11.046;2023-02-28T08:09:47;1.10;99.90
3360;DHT22;1693;49.602;11.046;2023-02-28T08:12:15;1.30;99.90
3360;DHT22;1693;49.602;11.046;2023-02-28T08:14:42;1.20;99.90
3360;DHT22;1693;49.602;11.046;2023-02-28T08:17:09;1.20;99.90
3360;DHT22;1693;49.602;11.046;2023-02-28T08:19:37;1.30;99.90
3360;DHT22;1693;49.602;11.046;2023-02-28T08:22:04;1.50;99.90
3360;DHT22;1693;49.602;11.046;2023-02-28T08:24:32;1.70;99.90
3360;DHT22;1693;49.602;11.046;2023-02-28T08:26:59;1.50;99.90
3360;DHT22;1693;49.602;11.046;2023-02-28T08:29:26;1.50;99.90
3360;DHT22;1693;49.602;11.046;2023-02-28T08:31:53;1.50;99.90
3360;DHT22;1693;49.602;11.046;2023-02-28T08:34:20;1.50;99.90
3360;DHT22;1693;49.602;11.046;2023-02-28T08:36:47;1.60;99.90
3360;DHT22;1693;49.602;11.046;2023-02-28T08:39:14;1.60;99.90
3360;DHT22;1693;49.602;11.046;2023-02-28T08:41:43;1.80;99.90
3360;DHT22;1693;49.602;11.046;2023-02-28T08:44:10;1.90;99.90
3360;DHT22;1693;49.602;11.046;2023-02-28T08:46:38;2.00;99.90
3360;DHT22;1693;49.602;11.046;2023-02-28T08:49:05;2.00;99.90
3360;DHT22;1693;49.602;11.046;2023-02-28T08:51:33;2.10;99.90
3360;DHT22;1693;49.602;11.046;2023-02-28T08:54:01;2.30;99.90
3360;DHT22;1693;49.602;11.046;2023-02-28T08:56:29;2.20;99.90
3360;DHT22;1693;49.602;11.046;2023-02-28T08:58:57;2.00;99.90
3360;DHT22;1693;49.602;11.046;2023-02-28T09:01:26;2.00;99.90
3360;DHT22;1693;49.602;11.046;2023-02-28T09:03:55;2.20;99.90
3360;DHT22;1693;49.602;11.046;2023-02-28T09:06:24;2.40;99.90
3360;DHT22;1693;49.602;11.046;2023-02-28T09:08:51;2.50;99.90
3360;DHT22;1693;49.602;11.046;2023-02-28T09:11:19;2.60;99.90
3360;DHT22;1693;49.602;11.046;2023-02-28T09:13:46;2.70;99.90
3360;DHT22;1693;49.602;11.046;2023-02-28T09:16:16;2.70;99.90
3360;DHT22;1693;49.602;11.046;2023-02-28T09:18:44;2.70;99.90
3360;DHT22;1693;49.602;11.046;2023-02-28T09:21:14;2.70;99.90
3360;DHT22;1693;49.602;11.046;2023-02-28T09:23:41;2.90;99.90
3360;DHT22;1693;49.602;11.046;2023-02-28T09:26:13;3.10;99.90
3360;DHT22;1693;49.602;11.046;2023-02-28T09:28:40;2.80;99.90
3360;DHT22;1693;49.602;11.046;2023-02-28T09:31:12;2.80;99.90
3360;DHT22;1693;49.602;11.046;2023-02-28T09:33:41;2.70;99.90
3360;DHT22;1693;49.602;11.046;2023-02-28T09:36:10;2.90;99.90
3360;DHT22;1693;49.602;11.046;2023-02-28T09:38:37;3.10;99.90
3360;DHT22;1693;49.602;11.046;2023-02-28T09:41:12;3.10;99.90
3360;DHT22;1693;49.602;11.046;2023-02-28T09:43:44;3.30;99.90
3360;DHT22;1693;49.602;11.046;2023-02-28T09:46:31;3.30;99.90
3360;DHT22;1693;49.602;11.046;2023-02-28T09:49:12;3.50;99.90
3360;DHT22;1693;49.602;11.046;2023-02-28T09:52:13;3.30;99.90
3360;DHT22;1693;49.602;11.046;2023-02-28T09:54:50;3.30;99.90
3360;DHT22;1693;49.602;11.046;2023-02-28T09:57:23;3.30;99.90
3360;DHT22;1693;49.602;11.046;2023-02-28T10:00:05;3.60;99.90
3360;DHT22;1693;49.602;11.046;2023-02-28T10:03:00;3.60;99.70
3360;DHT22;1693;49.602;11.046;2023-02-28T10:05:34;3.80;99.20
3360;DHT22;1693;49.602;11.046;2023-02-28T10:08:11;4.00;99.90
3360;DHT22;1693;49.602;11.046;2023-02-28T10:10:43;4.20;98.70
3360;DHT22;1693;49.602;11.046;2023-02-28T10:13:18;4.40;97.70
3360;DHT22;1693;49.602;11.046;2023-02-28T10:15:51;4.80;98.40
3360;DHT22;1693;49.602;11.046;2023-02-28T10:18:25;4.60;95.80
3360;DHT22;1693;49.602;11.046;2023-02-28T10:20:55;4.70;96.30
3360;DHT22;1693;49.602;11.046;2023-02-28T10:23:26;4.50;95.50
3360;DHT22;1693;49.602;11.046;2023-02-28T10:25:58;4.70;96.40
3360;DHT22;1693;49.602;11.046;2023-02-28T10:28:29;4.80;95.40
3360;DHT22;1693;49.602;11.046;2023-02-28T10:30:58;4.80;94.50
3360;DHT22;1693;49.602;11.046;2023-02-28T10:33:28;5.20;94.70
3360;DHT22;1693;49.602;11.046;2023-02-28T10:35:58;5.90;93.20
3360;DHT22;1693;49.602;11.046;2023-02-28T10:38:27;6.30;91.80
3360;DHT22;1693;49.602;11.046;2023-02-28T10:41:04;6.90;92.30
3360;DHT22;1693;49.602;11.046;2023-02-28T10:43:31;8.30;90.80
3360;DHT22;1693;49.602;11.046;2023-02-28T10:46:02;8.10;84.00
3360;DHT22;1693;49.602;11.046;2023-02-28T10:48:34;8.10;81.40
3360;DHT22;1693;49.602;11.046;2023-02-28T10:51:05;7.80;79.20
3360;DHT22;1693;49.602;11.046;2023-02-28T10:53:44;8.30;81.20
3360;DHT22;1693;49.602;11.046;2023-02-28T10:56:16;8.00;79.10
3360;DHT22;1693;49.602;11.046;2023-02-28T10:58:53;8.70;79.50
3360;DHT22;1693;49.602;11.046;2023-02-28T11:01:21;8.80;74.20
3360;DHT22;1693;49.602;11.046;2023-02-28T11:03:51;9.00;78.30
3360;DHT22;1693;49.602;11.046;2023-02-28T11:06:21;9.00;76.30
3360;DHT22;1693;49.602;11.046;2023-02-28T11:08:52;9.00;74.30
3360;DHT22;1693;49.602;11.046;2023-02-28T11:11:20;9.70;72.90
3360;DHT22;1693;49.602;11.046;2023-02-28T11:13:51;9.80;73.10
3360;DHT22;1693;49.602;11.046;2023-02-28T11:16:19;9.40;70.00
3360;DHT22;1693;49.602;11.046;2023-02-28T11:18:49;9.00;73.30
3360;DHT22;1693;49.602;11.046;2023-02-28T11:21:22;10.20;70.10
3360;DHT22;1693;49.602;11.046;2023-02-28T11:23:52;10.10;66.70
3360;DHT22;1693;49.602;11.046;2023-02-28T11:26:38;9.50;67.40
3360;DHT22;1693;49.602;11.046;2023-02-28T11:29:19;9.20;69.10
3360;DHT22;1693;49.602;11.046;2023-02-28T11:32:12;10.00;68.80
3360;DHT22;1693;49.602;11.046;2023-02-28T11:34:41;10.40;67.00
3360;DHT22;1693;49.602;11.046;2023-02-28T11:37:13;9.70;65.00
3360;DHT22;1693;49.602;11.046;2023-02-28T11:39:41;10.50;65.60
3360;DHT22;1693;49.602;11.046;2023-02-28T11:42:27;10.70;64.00
3360;DHT22;1693;49.602;11.046;2023-02-28T11:45:07;8.90;63.70
3360;DHT22;1693;49.602;11.046;2023-02-28T11:47:43;8.50;67.20
3360;DHT22;1693;49.602;11.046;2023-02-28T11:50:39;8.90;68.20
3360;DHT22;1693;49.602;11.046;2023-02-28T11:53:17;8.60;66.50
3360;DHT22;1693;49.602;11.046;2023-02-28T11:55:53;8.40;67.30
3360;DHT22;1693;49.602;11.046;2023-02-28T11:58:33;9.50;70.00
3360;DHT22;1693;49.602;11.046;2023-02-28T12:04:17;10.20;67.10
3360;DHT22;1693;49.602;11.046;2023-02-28T12:06:54;11.20;65.20
3360;DHT22;1693;49.602;11.046;2023-02-28T12:09:40;9.70;62.40
3360;DHT22;1693;49.602;11.046;2023-02-28T12:12:18;9.60;65.40
3360;DHT22;1693;49.602;11.046;2023-02-28T12:15:12;10.60;65.40
3360;DHT22;1693;49.602;11.046;2023-02-28T12:17:51;10.20;61.90
3360;DHT22;1693;49.602;11.046;2023-02-28T12:20:28;9.50;62.90
3360;DHT22;1693;49.602;11.046;2023-02-28T12:23:09;9.90;63.40
3360;DHT22;1693;49.602;11.046;2023-02-28T12:25:50;9.40;63.00
3360;DHT22;1693;49.602;11.046;2023-02-28T12:28:25;9.40;64.50
3360;DHT22;1693;49.602;11.046;2023-02-28T12:30:56;9.10;64.30
3360;DHT22;1693;49.602;11.046;2023-02-28T12:33:29;9.90;64.60
3360;DHT22;1693;49.602;11.046;2023-02-28T12:36:00;10.60;61.50
3360;DHT22;1693;49.602;11.046;2023-02-28T12:38:36;11.40;61.40
3360;DHT22;1693;49.602;11.046;2023-02-28T12:41:11;11.20;61.10
3360;DHT22;1693;49.602;11.046;2023-02-28T12:43:43;11.70;60.60
3360;DHT22;1693;49.602;11.046;2023-02-28T12:46:14;11.40;59.80
3360;DHT22;1693;49.602;11.046;2023-02-28T12:48:46;11.40;60.30
3360;DHT22;1693;49.602;11.046;2023-02-28T12:51:16;12.00;60.30
3360;DHT22;1693;49.602;11.046;2023-02-28T12:53:54;12.20;59.70
3360;DHT22;1693;49.602;11.046;2023-02-28T12:56:33;12.00;58.30
3360;DHT22;1693;49.602;11.046;2023-02-28T12:59:10;12.40;58.20
3360;DHT22;1693;49.602;11.046;2023-02-28T13:02:02;12.20;58.00
3360;DHT22;1693;49.602;11.046;2023-02-28T13:10:48;12.20;57.70
3360;DHT22;1693;49.602;11.046;2023-02-28T13:13:31;12.00;56.80
3360;DHT22;1693;49.602;11.046;2023-02-28T13:16:03;10.50;57.10
3360;DHT22;1693;49.602;11.046;2023-02-28T13:24:41;12.70;57.30
3360;DHT22;1693;49.602;11.046;2023-02-28T13:27:36;12.50;55.30
3360;DHT22;1693;49.602;11.046;2023-02-28T13:33:26;11.90;55.70
3360;DHT22;1693;49.602;11.046;2023-02-28T13:36:12;11.60;55.00
3360;DHT22;1693;49.602;11.046;2023-02-28T13:38:50;12.10;56.50
3360;DHT22;1693;49.602;11.046;2023-02-28T13:44:22;12.10;54.80
3360;DHT22;1693;49.602;11.046;2023-02-28T13:47:28;11.90;55.60
3360;DHT22;1693;49.602;11.046;2023-02-28T13:50:27;11.60;55.30
3360;DHT22;1693;49.602;11.046;2023-02-28T13:55:35;10.60;53.20
3360;DHT22;1693;49.602;11.046;2023-02-28T13:58:12;11.20;55.50
3360;DHT22;1693;49.602;11.046;2023-02-28T14:00:59;11.50;54.60
3360;DHT22;1693;49.602;11.046;2023-02-28T14:03:49;11.80;57.00
3360;DHT22;1693;49.602;11.046;2023-02-28T14:06:25;12.40;55.10
3360;DHT22;1693;49.602;11.046;2023-02-28T14:08:58;11.00;53.90
3360;DHT22;1693;49.602;11.046;2023-02-28T14:11:32;11.10;55.60
3360;DHT22;1693;49.602;11.046;2023-02-28T14:14:00;11.40;56.10
3360;DHT22;1693;49.602;11.046;2023-02-28T14:16:35;11.50;56.70
3360;DHT22;1693;49.602;11.046;2023-02-28T14:19:11;11.90;56.50
3360;DHT22;1693;49.602;11.046;2023-02-28T14:21:48;12.70;54.70
3360;DHT22;1693;49.602;11.046;2023-02-28T14:24:34;12.30;53.70
3360;DHT22;1693;49.602;11.046;2023-02-28T14:27:28;12.20;53.60
3360;DHT22;1693;49.602;11.046;2023-02-28T14:32:54;12.30;53.90
3360;DHT22;1693;49.602;11.046;2023-02-28T14:35:47;11.90;54.10
3360;DHT22;1693;49.602;11.046;2023-02-28T14:38:21;12.20;54.80
3360;DHT22;1693;49.602;11.046;2023-02-28T14:40:52;12.40;54.40
3360;DHT22;1693;49.602;11.046;2023-02-28T14:43:21;12.70;54.40
3360;DHT22;1693;49.602;11.046;2023-02-28T14:45:55;12.30;54.60
3360;DHT22;1693;49.602;11.046;2023-02-28T14:48:24;13.20;54.40
3360;DHT22;1693;49.602;11.046;2023-02-28T14:50:53;12.80;53.40
3360;DHT22;1693;49.602;11.046;2023-02-28T14:53:25;12.60;52.40
3360;DHT22;1693;49.602;11.046;2023-02-28T14:55:55;11.90;52.20
3360;DHT22;1693;49.602;11.046;2023-02-28T14:58:25;11.50;53.20
3360;DHT22;1693;49.602;11.046;2023-02-28T15:00:56;11.30;54.10
3360;DHT22;1693;49.602;11.046;2023-02-28T15:03:31;11.50;54.80
3360;DHT22;1693;49.602;11.046;2023-02-28T15:06:02;11.30;54.40
3360;DHT22;1693;49.602;11.046;2023-02-28T15:08:33;12.50;54.90
3360;DHT22;1693;49.602;11.046;2023-02-28T15:11:04;11.90;52.90
3360;DHT22;1693;49.602;11.046;2023-02-28T15:13:36;12.00;53.60
3360;DHT22;1693;49.602;11.046;2023-02-28T15:16:09;11.70;53.50
3360;DHT22;1693;49.602;11.046;2023-02-28T15:18:44;11.90;53.30
3360;DHT22;1693;49.602;11.046;2023-02-28T15:21:15;12.10;53.90
3360;DHT22;1693;49.602;11.046;2023-02-28T15:23:46;11.60;53.50
3360;DHT22;1693;49.602;11.046;2023-02-28T15:26:17;11.70;53.70
3360;DHT22;1693;49.602;11.046;2023-02-28T15:28:46;10.50;52.90
3360;DHT22;1693;49.602;11.046;2023-02-28T15:31:22;10.60;54.10
3360;DHT22;1693;49.602;11.046;2023-02-28T15:33:55;11.00;54.60
3360;DHT22;1693;49.602;11.046;2023-02-28T15:36:26;10.60;54.00
3360;DHT22;1693;49.602;11.046;2023-02-28T15:38:55;11.30;55.50
3360;DHT22;1693;49.602;11.046;2023-02-28T15:41:25;11.60;54.70
3360;DHT22;1693;49.602;11.046;2023-02-28T15:44:25;11.80;54.50
3360;DHT22;1693;49.602;11.046;2023-02-28T15:47:00;11.90;54.40
3360;DHT22;1693;49.602;11.046;2023-02-28T15:49:37;11.10;53.90
3360;DHT22;1693;49.602;11.046;2023-02-28T15:52:14;10.30;54.90
3360;DHT22;1693;49.602;11.046;2023-02-28T15:54:44;8.70;56.30
3360;DHT22;1693;49.602;11.046;2023-02-28T15:57:15;8.20;58.10
3360;DHT22;1693;49.602;11.046;2023-02-28T15:59:50;7.00;59.10
3360;DHT22;1693;49.602;11.046;2023-02-28T16:02:19;6.40;62.00
3360;DHT22;1693;49.602;11.046;2023-02-28T16:04:59;6.20;63.20
3360;DHT22;1693;49.602;11.046;2023-02-28T16:07:27;5.90;64.80
3360;DHT22;1693;49.602;11.046;2023-02-28T16:09:55;5.60;66.20
3360;DHT22;1693;49.602;11.046;2023-02-28T16:12:26;5.30;66.90
3360;DHT22;1693;49.602;11.046;2023-02-28T16:14:57;5.00;67.70
3360;DHT22;1693;49.602;11.046;2023-02-28T16:17:26;4.80;69.30
3360;DHT22;1693;49.602;11.046;2023-02-28T16:19:54;4.70;70.40
3360;DHT22;1693;49.602;11.046;2023-02-28T16:22:21;4.60;71.60
3360;DHT22;1693;49.602;11.046;2023-02-28T16:24:48;4.50;73.10
3360;DHT22;1693;49.602;11.046;2023-02-28T16:27:19;4.50;72.70
3360;DHT22;1693;49.602;11.046;2023-02-28T16:29:47;4.30;73.00
3360;DHT22;1693;49.602;11.046;2023-02-28T16:32:16;4.20;74.80
3360;DHT22;1693;49.602;11.046;2023-02-28T16:34:43;4.10;75.70
3360;DHT22;1693;49.602;11.046;2023-02-28T16:37:14;4.00;76.50
3360;DHT22;1693;49.602;11.046;2023-02-28T16:39:43;3.90;77.80
3360;DHT22;1693;49.602;11.046;2023-02-28T16:42:16;3.80;78.40
3360;DHT22;1693;49.602;11.046;2023-02-28T16:44:47;3.80;79.00
3360;DHT22;1693;49.602;11.046;2023-02-28T16:47:14;3.70;80.10
3360;DHT22;1693;49.602;11.046;2023-02-28T16:49:41;3.60;81.00
3360;DHT22;1693;49.602;11.046;2023-02-28T16:52:10;3.60;81.80
3360;DHT22;1693;49.602;11.046;2023-02-28T16:54:38;3.50;82.90
3360;DHT22;1693;49.602;11.046;2023-02-28T16:57:05;3.40;84.30